createdAt,value
2018-05-11T00:00:16.081Z,49.06
2018-05-11T00:02:43.625Z,49.15
2018-05-11T00:05:11.188Z,49.30
2018-05-11T00:07:38.716Z,49.31
2018-05-11T00:10:06.247Z,49.43
2018-05-11T00:12:33.765Z,49.46
2018-05-11T00:15:01.301Z,49.46
2018-05-11T00:17:28.828Z,49.58
2018-05-11T00:19:56.370Z,49.75
2018-05-11T00:22:23.887Z,49.75
2018-05-11T00:24:51.487Z,49.85
2018-05-11T00:27:19.019Z,49.89
2018-05-11T00:29:46.592Z,49.94
2018-05-11T00:32:14.157Z,50.06
2018-05-11T00:34:41.705Z,50.35
2018-05-11T00:37:09.245Z,50.42
2018-05-11T00:39:36.788Z,50.33
2018-05-11T00:42:04.338Z,50.54
2018-05-11T00:44:31.904Z,50.70
2018-05-11T00:46:59.454Z,50.82
2018-05-11T00:49:27.003Z,50.95
2018-05-11T00:51:54.554Z,50.91
2018-05-11T00:54:22.107Z,50.92
2018-05-11T00:56:49.653Z,51.01
2018-05-11T00:59:17.209Z,51.18
2018-05-11T01:01:44.775Z,51.29
2018-05-11T01:04:12.327Z,51.44
2018-05-11T01:06:39.873Z,51.55
2018-05-11T01:09:07.526Z,51.64
2018-05-11T01:11:35.106Z,51.79
2018-05-11T01:14:02.700Z,51.91
2018-05-11T01:16:30.269Z,51.82
2018-05-11T01:18:57.845Z,51.83
2018-05-11T01:21:25.437Z,51.93
2018-05-11T01:23:52.996Z,52.12
2018-05-11T01:26:20.571Z,52.23
2018-05-11T01:28:49.182Z,52.36
2018-05-11T01:31:16.769Z,52.31
2018-05-11T01:33:44.326Z,52.27
2018-05-11T01:36:11.915Z,52.41
2018-05-11T01:38:39.447Z,52.47
2018-05-11T01:41:07.669Z,52.48
2018-05-11T01:43:35.238Z,52.56
2018-05-11T01:46:02.807Z,52.47
2018-05-11T01:48:30.343Z,52.64
2018-05-11T01:50:57.902Z,52.66
2018-05-11T01:53:25.567Z,52.64
2018-05-11T01:55:53.075Z,52.67
2018-05-11T01:58:20.637Z,52.57
2018-05-11T02:00:48.251Z,52.56
2018-05-11T02:03:15.806Z,52.48
2018-05-11T02:05:43.375Z,52.41
2018-05-11T02:08:10.954Z,52.14
2018-05-11T02:10:38.543Z,52.20
2018-05-11T02:13:06.098Z,52.15
2018-05-11T02:15:33.673Z,52.08
2018-05-11T02:18:01.241Z,52.26
2018-05-11T02:20:28.841Z,52.31
2018-05-11T02:22:56.397Z,52.32
2018-05-11T02:25:23.964Z,52.48
2018-05-11T02:27:51.509Z,52.51
2018-05-11T02:30:19.074Z,52.47
2018-05-11T02:32:46.640Z,52.63
2018-05-11T02:35:14.292Z,52.72
2018-05-11T02:37:41.857Z,52.96
2018-05-11T02:40:09.419Z,53.00
2018-05-11T02:42:37.002Z,53.11
2018-05-11T02:45:04.597Z,53.22
2018-05-11T02:47:32.168Z,53.44
2018-05-11T02:49:59.737Z,53.53
2018-05-11T02:52:27.293Z,53.83
2018-05-11T02:54:54.848Z,53.83
2018-05-11T02:57:22.418Z,53.85
2018-05-11T02:59:49.960Z,53.82
2018-05-11T03:02:18.934Z,54.03
2018-05-11T03:04:46.516Z,54.04
2018-05-11T03:07:14.069Z,54.11
2018-05-11T03:09:41.646Z,54.20
2018-05-11T03:12:09.303Z,54.34
2018-05-11T03:14:36.784Z,54.43
2018-05-11T03:17:04.343Z,54.52
2018-05-11T03:19:31.914Z,54.48
2018-05-11T03:21:59.478Z,54.66
2018-05-11T03:24:27.007Z,54.67
2018-05-11T03:26:54.589Z,54.63
2018-05-11T03:29:22.121Z,54.61
2018-05-11T03:31:49.711Z,54.73
2018-05-11T03:34:17.234Z,54.80
2018-05-11T03:36:44.839Z,54.89
2018-05-11T03:39:12.445Z,54.81
2018-05-11T03:41:40.031Z,54.74
2018-05-11T03:44:07.577Z,54.87
2018-05-11T03:46:35.132Z,54.89
2018-05-11T03:49:02.686Z,54.84
2018-05-11T03:51:30.245Z,54.87
2018-05-11T03:53:57.876Z,54.94
2018-05-11T03:56:25.485Z,55.02
2018-05-11T03:58:53.038Z,55.08
2018-05-11T04:01:32.127Z,55.20
2018-05-11T04:04:11.488Z,55.09
2018-05-11T04:06:51.657Z,55.15
2018-05-11T04:09:19.185Z,55.18
2018-05-11T04:11:46.753Z,55.16
2018-05-11T04:14:14.347Z,55.19
2018-05-11T04:16:41.898Z,55.09
2018-05-11T04:19:09.449Z,55.26
2018-05-11T04:21:37.018Z,55.00
2018-05-11T04:24:04.579Z,54.93
2018-05-11T04:26:32.125Z,54.91
2018-05-11T04:28:59.719Z,54.90
2018-05-11T04:31:27.284Z,54.79
2018-05-11T04:33:54.956Z,54.54
2018-05-11T04:36:22.488Z,54.61
2018-05-11T04:38:50.085Z,54.49
2018-05-11T04:41:17.624Z,54.67
2018-05-11T04:43:45.184Z,54.64
2018-05-11T04:46:12.735Z,54.40
2018-05-11T04:48:40.285Z,54.30
2018-05-11T04:51:07.833Z,54.17
2018-05-11T04:53:35.427Z,53.95
2018-05-11T04:56:02.980Z,53.89
2018-05-11T04:58:30.534Z,53.78
2018-05-11T05:00:58.064Z,53.47
2018-05-11T05:03:25.629Z,53.39
2018-05-11T05:05:53.165Z,53.44
2018-05-11T05:08:20.751Z,53.36
2018-05-11T05:10:48.316Z,53.30
2018-05-11T05:13:18.003Z,53.17
2018-05-11T05:15:45.569Z,52.99
2018-05-11T05:18:13.159Z,52.83
2018-05-11T05:20:41.426Z,52.63
2018-05-11T05:23:09.010Z,52.58
2018-05-11T05:25:36.578Z,52.58
2018-05-11T05:28:04.155Z,52.61
2018-05-11T05:30:31.753Z,52.50
2018-05-11T05:32:59.444Z,52.32
2018-05-11T05:35:27.045Z,52.28
2018-05-11T05:37:54.640Z,52.03
2018-05-11T05:40:22.225Z,51.88
2018-05-11T05:42:49.797Z,51.68
2018-05-11T05:45:17.477Z,51.38
2018-05-11T05:47:45.415Z,51.25
2018-05-11T05:50:12.983Z,51.10
2018-05-11T05:52:40.548Z,50.91
2018-05-11T05:55:08.151Z,50.80
2018-05-11T05:57:35.801Z,50.69
2018-05-11T06:00:03.421Z,50.61
2018-05-11T06:02:31.689Z,50.08
2018-05-11T06:04:59.353Z,50.04
2018-05-11T06:07:26.964Z,50.14
2018-05-11T06:09:54.632Z,49.83
2018-05-11T06:12:22.307Z,49.98
2018-05-11T06:14:49.922Z,49.75
2018-05-11T06:17:17.735Z,49.68
2018-05-11T06:19:45.342Z,49.35
2018-05-11T06:22:12.925Z,49.51
2018-05-11T06:24:40.507Z,49.82
2018-05-11T06:27:08.243Z,49.75
2018-05-11T06:29:35.879Z,49.50
2018-05-11T06:32:04.092Z,49.32
2018-05-11T06:34:31.770Z,48.81
2018-05-11T06:36:59.385Z,48.25
2018-05-11T06:39:27.016Z,47.48
2018-05-11T06:41:54.556Z,46.35
2018-05-11T06:44:22.145Z,45.68
2018-05-11T06:46:49.690Z,45.04
2018-05-11T06:49:17.310Z,43.89
2018-05-11T06:51:44.863Z,42.86
2018-05-11T06:54:12.418Z,42.09
2018-05-11T06:56:39.981Z,41.68
2018-05-11T06:59:07.533Z,41.52
2018-05-11T07:01:35.237Z,40.79
2018-05-11T07:04:02.835Z,39.58
2018-05-11T07:06:30.416Z,38.55
2018-05-11T07:08:58.448Z,37.65
2018-05-11T07:11:26.029Z,37.47
2018-05-11T07:13:53.607Z,37.04
2018-05-11T07:16:21.220Z,36.88
2018-05-11T07:18:48.895Z,36.74
2018-05-11T07:21:16.594Z,36.08
2018-05-11T07:23:44.336Z,34.24
2018-05-11T07:26:11.969Z,33.35
2018-05-11T07:28:39.532Z,32.49
2018-05-11T07:31:07.162Z,32.28
2018-05-11T07:33:34.729Z,31.54
2018-05-11T07:36:02.304Z,30.42
2018-05-11T07:38:29.852Z,29.48
2018-05-11T07:40:57.452Z,29.45
2018-05-11T07:43:25.151Z,29.05
2018-05-11T07:45:52.626Z,28.05
2018-05-11T07:48:20.247Z,28.14
2018-05-11T07:50:47.805Z,27.16
2018-05-11T07:53:15.369Z,26.99
2018-05-11T07:55:42.925Z,26.61
2018-05-11T07:58:10.455Z,26.57
2018-05-11T08:00:37.992Z,26.53
2018-05-11T08:03:05.537Z,27.30
2018-05-11T08:05:33.128Z,28.66
2018-05-11T08:08:00.717Z,28.07
2018-05-11T08:10:28.339Z,28.05
2018-05-11T08:12:55.929Z,28.62
2018-05-11T08:15:23.488Z,28.59
2018-05-11T08:17:51.945Z,28.55
2018-05-11T08:20:19.497Z,28.08
2018-05-11T08:22:47.085Z,28.03
2018-05-11T08:25:14.647Z,28.31
2018-05-11T08:27:42.269Z,27.95
2018-05-11T08:30:09.834Z,28.29
2018-05-11T08:32:37.436Z,28.55
2018-05-11T08:35:05.038Z,28.12
2018-05-11T08:37:32.621Z,28.21
2018-05-11T08:40:00.264Z,28.56
2018-05-11T08:42:27.876Z,28.84
2018-05-11T08:44:55.435Z,29.54
2018-05-11T08:47:23.097Z,28.66
2018-05-11T08:49:50.672Z,27.11
2018-05-11T08:52:18.260Z,25.81
2018-05-11T08:54:45.832Z,25.57
2018-05-11T08:57:13.463Z,24.42
2018-05-11T08:59:41.108Z,23.11
2018-05-11T09:02:08.771Z,21.26
2018-05-11T09:04:36.463Z,20.29
2018-05-11T09:07:04.043Z,19.53
2018-05-11T09:09:31.613Z,18.99
2018-05-11T09:11:59.238Z,19.00
2018-05-11T09:14:26.807Z,20.01
2018-05-11T09:16:54.427Z,20.57
2018-05-11T09:19:22.519Z,20.73
2018-05-11T09:21:50.117Z,19.89
2018-05-11T09:24:17.727Z,19.62
2018-05-11T09:26:45.321Z,18.97
2018-05-11T09:29:12.957Z,18.35
2018-05-11T09:31:40.596Z,18.07
2018-05-11T09:34:08.140Z,17.90
2018-05-11T09:36:35.771Z,16.90
2018-05-11T09:39:03.318Z,16.07
2018-05-11T09:41:30.905Z,15.81
2018-05-11T09:43:58.651Z,16.41
2018-05-11T09:46:26.207Z,16.10
2018-05-11T09:48:53.756Z,16.46
2018-05-11T09:51:21.373Z,17.11
2018-05-11T09:53:48.977Z,17.71
2018-05-11T09:56:16.537Z,17.29
2018-05-11T09:58:44.096Z,16.58
2018-05-11T10:01:11.701Z,15.47
2018-05-11T10:03:39.341Z,15.86
2018-05-11T10:06:07.104Z,15.68
2018-05-11T10:08:35.913Z,15.61
2018-05-11T10:11:03.481Z,14.68
2018-05-11T10:13:31.062Z,14.69
2018-05-11T10:15:58.713Z,14.45
2018-05-11T10:18:26.306Z,14.29
2018-05-11T10:20:53.935Z,14.11
2018-05-11T10:23:21.453Z,13.65
2018-05-11T10:25:49.046Z,13.83
2018-05-11T10:28:16.670Z,12.81
2018-05-11T10:30:44.293Z,12.91
2018-05-11T10:33:11.895Z,12.04
2018-05-11T10:35:39.542Z,12.31
2018-05-11T10:38:07.174Z,13.35
2018-05-11T10:40:34.745Z,13.51
2018-05-11T10:43:02.983Z,13.17
2018-05-11T10:45:30.619Z,12.61
2018-05-11T10:47:58.284Z,12.58
2018-05-11T10:50:25.850Z,11.85
2018-05-11T10:52:53.501Z,10.86
2018-05-11T10:55:21.087Z,10.16
2018-05-11T10:57:48.661Z,11.22
2018-05-11T11:00:16.236Z,11.53
2018-05-11T11:02:43.899Z,11.98
2018-05-11T11:05:11.478Z,12.66
2018-05-11T11:07:39.058Z,13.17
2018-05-11T11:10:06.631Z,13.97
2018-05-11T11:12:34.234Z,13.92
2018-05-11T11:15:01.839Z,13.46
2018-05-11T11:17:29.398Z,14.08
2018-05-11T11:19:57.044Z,14.75
2018-05-11T11:22:24.629Z,15.29
2018-05-11T11:24:52.734Z,15.73
2018-05-11T11:27:20.331Z,16.30
2018-05-11T11:29:47.907Z,16.30
2018-05-11T11:32:15.464Z,16.41
2018-05-11T11:34:43.174Z,16.58
2018-05-11T11:37:11.453Z,16.70
2018-05-11T11:39:39.030Z,16.85
2018-05-11T11:42:06.628Z,17.56
2018-05-11T11:44:34.198Z,17.48
2018-05-11T11:47:01.773Z,17.95
2018-05-11T11:49:29.380Z,18.39
2018-05-11T11:51:57.064Z,18.92
2018-05-11T11:54:24.678Z,19.24
2018-05-11T11:56:52.271Z,19.26
2018-05-11T11:59:19.863Z,20.23
2018-05-11T12:01:47.417Z,19.89
2018-05-11T12:04:15.078Z,20.04
2018-05-11T12:06:42.740Z,19.80
2018-05-11T12:09:10.387Z,19.31
2018-05-11T12:11:37.964Z,19.50
2018-05-11T12:14:05.592Z,19.46
2018-05-11T12:16:33.153Z,19.62
2018-05-11T12:19:00.801Z,19.77
2018-05-11T12:21:28.412Z,20.09
2018-05-11T12:23:55.961Z,20.11
2018-05-11T12:26:24.034Z,20.52
2018-05-11T12:28:51.568Z,20.26
2018-05-11T12:31:19.151Z,20.09
2018-05-11T12:33:46.857Z,21.01
2018-05-11T12:36:14.458Z,20.43
2018-05-11T12:38:42.014Z,20.55
2018-05-11T12:41:09.818Z,20.04
2018-05-11T12:43:37.394Z,20.27
2018-05-11T12:46:05.167Z,20.43
2018-05-11T12:48:32.769Z,20.75
2018-05-11T12:51:00.376Z,20.91
2018-05-11T12:53:28.144Z,21.21
2018-05-11T12:55:55.666Z,21.35
2018-05-11T12:58:23.755Z,21.26
2018-05-11T13:00:51.379Z,21.64
2018-05-11T13:03:19.025Z,22.37
2018-05-11T13:05:47.211Z,22.01
2018-05-11T13:08:14.849Z,21.41
2018-05-11T13:10:42.437Z,20.73
2018-05-11T13:13:10.037Z,20.60
2018-05-11T13:15:37.638Z,20.58
2018-05-11T13:18:05.334Z,21.00
2018-05-11T13:20:33.033Z,20.44
2018-05-11T13:23:00.590Z,21.05
2018-05-11T13:25:28.217Z,20.68
2018-05-11T13:27:55.909Z,20.65
2018-05-11T13:30:23.569Z,20.77
2018-05-11T13:32:51.124Z,20.62
2018-05-11T13:35:18.698Z,21.03
2018-05-11T13:37:46.271Z,20.75
2018-05-11T13:40:13.890Z,20.46
2018-05-11T13:42:41.520Z,20.14
2018-05-11T13:45:09.269Z,20.18
2018-05-11T13:47:37.248Z,20.50
2018-05-11T13:50:04.898Z,20.38
2018-05-11T13:52:32.572Z,19.82
2018-05-11T13:55:00.223Z,19.79
2018-05-11T13:57:28.037Z,19.60
2018-05-11T13:59:55.649Z,19.90
2018-05-11T14:02:23.345Z,19.52
2018-05-11T14:04:51.311Z,19.58
2018-05-11T14:07:19.062Z,19.91
2018-05-11T14:09:46.727Z,20.13
2018-05-11T14:12:14.579Z,20.27
2018-05-11T14:14:42.291Z,20.54
2018-05-11T14:17:10.102Z,20.34
2018-05-11T14:19:37.891Z,20.20
2018-05-11T14:22:05.645Z,20.27
2018-05-11T14:24:33.305Z,20.40
2018-05-11T14:27:00.933Z,20.59
2018-05-11T14:29:28.570Z,20.59
2018-05-11T14:31:56.199Z,20.69
2018-05-11T14:34:23.734Z,20.88
2018-05-11T14:36:51.334Z,21.37
2018-05-11T14:39:18.880Z,21.19
2018-05-11T14:41:46.475Z,21.05
2018-05-11T14:44:14.039Z,20.94
2018-05-11T14:46:41.693Z,20.72
2018-05-11T14:49:09.216Z,20.61
2018-05-11T14:51:36.802Z,20.70
2018-05-11T14:54:04.371Z,21.19
2018-05-11T14:56:31.937Z,20.75
2018-05-11T14:58:59.727Z,21.12
2018-05-11T15:01:27.278Z,21.06
2018-05-11T15:03:54.879Z,21.02
2018-05-11T15:06:22.485Z,21.06
2018-05-11T15:08:50.073Z,21.13
2018-05-11T15:11:17.645Z,21.11
2018-05-11T15:13:45.273Z,21.14
2018-05-11T15:16:12.837Z,21.17
2018-05-11T15:18:44.588Z,21.48
2018-05-11T15:21:12.140Z,21.09
2018-05-11T15:23:39.743Z,21.14
2018-05-11T15:26:07.390Z,21.47
2018-05-11T15:28:35.043Z,21.20
2018-05-11T15:31:02.614Z,21.08
2018-05-11T15:33:30.218Z,21.11
2018-05-11T15:35:57.835Z,21.08
2018-05-11T15:38:25.412Z,21.13
2018-05-11T15:40:53.071Z,21.37
2018-05-11T15:43:20.799Z,21.59
2018-05-11T15:45:48.339Z,21.67
2018-05-11T15:48:15.981Z,22.06
2018-05-11T15:50:43.517Z,22.10
2018-05-11T15:53:11.115Z,22.31
2018-05-11T15:55:38.736Z,22.54
2018-05-11T15:58:06.353Z,22.83
2018-05-11T16:00:33.919Z,22.95
2018-05-11T16:03:01.504Z,22.99
2018-05-11T16:05:30.412Z,23.22
2018-05-11T16:07:58.035Z,23.17
2018-05-11T16:10:25.579Z,23.44
2018-05-11T16:12:53.288Z,23.66
2018-05-11T16:15:21.063Z,23.70
2018-05-11T16:17:48.726Z,23.81
2018-05-11T16:20:16.370Z,23.74
2018-05-11T16:22:44.053Z,24.03
2018-05-11T16:25:14.428Z,24.01
2018-05-11T16:27:42.068Z,24.05
2018-05-11T16:30:09.652Z,24.18
2018-05-11T16:32:37.369Z,24.37
2018-05-11T16:35:05.931Z,24.61
2018-05-11T16:37:33.685Z,24.30
2018-05-11T16:40:01.324Z,24.02
2018-05-11T16:42:28.995Z,24.01
2018-05-11T16:44:56.813Z,24.08
2018-05-11T16:47:24.365Z,24.13
2018-05-11T16:49:51.968Z,24.14
2018-05-11T16:52:19.553Z,24.27
2018-05-11T16:54:47.183Z,24.73
2018-05-11T16:57:14.727Z,24.82
2018-05-11T16:59:42.329Z,24.58
2018-05-11T17:02:09.956Z,24.77
2018-05-11T17:04:37.550Z,24.82
2018-05-11T17:07:06.063Z,25.99
2018-05-11T17:09:33.646Z,27.40
2018-05-11T17:12:01.232Z,27.90
2018-05-11T17:14:28.846Z,28.54
2018-05-11T17:16:56.404Z,28.97
2018-05-11T17:19:24.012Z,29.21
2018-05-11T17:21:51.610Z,29.53
2018-05-11T17:24:19.196Z,29.57
2018-05-11T17:26:46.797Z,29.65
2018-05-11T17:29:14.388Z,29.63
2018-05-11T17:31:41.964Z,29.81
2018-05-11T17:34:09.592Z,29.95
2018-05-11T17:36:37.194Z,30.33
2018-05-11T17:39:04.850Z,30.35
2018-05-11T17:41:32.543Z,30.44
2018-05-11T17:44:00.037Z,30.60
2018-05-11T17:46:27.586Z,30.83
2018-05-11T17:48:55.160Z,31.12
2018-05-11T17:51:22.683Z,31.36
2018-05-11T17:53:50.241Z,31.51
2018-05-11T17:56:17.859Z,31.58
2018-05-11T17:58:45.459Z,31.84
2018-05-11T18:01:13.064Z,32.40
2018-05-11T18:03:40.639Z,32.52
2018-05-11T18:06:08.229Z,32.78
2018-05-11T18:08:35.789Z,32.99
2018-05-11T18:11:03.367Z,33.17
2018-05-11T18:13:30.940Z,33.33
2018-05-11T18:15:58.569Z,33.44
2018-05-11T18:18:26.152Z,33.58
2018-05-11T18:20:53.730Z,33.82
2018-05-11T18:23:21.275Z,34.07
2018-05-11T18:25:48.843Z,34.26
2018-05-11T18:28:16.390Z,34.62
2018-05-11T18:30:43.964Z,34.77
2018-05-11T18:33:11.686Z,34.84
2018-05-11T18:35:39.345Z,35.08
2018-05-11T18:38:06.908Z,35.22
2018-05-11T18:40:34.516Z,35.19
2018-05-11T18:43:02.116Z,35.27
2018-05-11T18:45:29.696Z,35.72
2018-05-11T18:47:57.300Z,35.90
2018-05-11T18:50:24.907Z,36.00
2018-05-11T18:52:52.764Z,36.21
2018-05-11T18:55:20.369Z,36.34
2018-05-11T18:57:48.462Z,36.72
2018-05-11T19:00:16.039Z,37.00
2018-05-11T19:02:43.613Z,37.19
2018-05-11T19:05:11.208Z,37.38
2018-05-11T19:07:38.870Z,37.50
2018-05-11T19:10:06.617Z,37.64
2018-05-11T19:12:34.213Z,37.82
2018-05-11T19:15:01.797Z,37.83
2018-05-11T19:17:29.430Z,38.15
2018-05-11T19:19:57.045Z,38.05
2018-05-11T19:22:24.654Z,38.24
2018-05-11T19:24:52.279Z,38.22
2018-05-11T19:27:19.914Z,38.38
2018-05-11T19:29:47.474Z,38.44
2018-05-11T19:32:15.089Z,38.43
2018-05-11T19:34:42.716Z,38.51
2018-05-11T19:37:10.277Z,38.50
2018-05-11T19:39:38.889Z,38.49
2018-05-11T19:42:06.464Z,38.74
2018-05-11T19:44:34.094Z,38.73
2018-05-11T19:47:01.646Z,38.69
2018-05-11T19:49:29.283Z,38.88
2018-05-11T19:51:56.897Z,38.91
2018-05-11T19:54:24.449Z,38.95
2018-05-11T19:56:52.012Z,39.04
2018-05-11T19:59:21.410Z,38.98
2018-05-11T20:01:48.955Z,39.02
2018-05-11T20:04:16.561Z,39.09
2018-05-11T20:06:44.103Z,39.08
2018-05-11T20:09:11.643Z,39.10
2018-05-11T20:11:39.306Z,39.08
2018-05-11T20:14:06.858Z,39.19
2018-05-11T20:16:34.457Z,39.19
2018-05-11T20:19:02.023Z,39.26
2018-05-11T20:21:29.646Z,39.23
2018-05-11T20:23:57.234Z,39.32
2018-05-11T20:26:24.793Z,39.53
2018-05-11T20:28:52.404Z,39.54
2018-05-11T20:31:19.993Z,39.58
2018-05-11T20:33:48.390Z,39.56
2018-05-11T20:36:15.924Z,39.59
2018-05-11T20:38:43.485Z,39.51
2018-05-11T20:41:11.067Z,39.54
2018-05-11T20:43:38.615Z,39.67
2018-05-11T20:46:06.213Z,39.68
2018-05-11T20:48:33.752Z,39.78
2018-05-11T20:51:01.325Z,39.74
2018-05-11T20:53:28.904Z,39.78
2018-05-11T20:55:56.506Z,39.89
2018-05-11T20:58:24.075Z,39.88
2018-05-11T21:00:51.620Z,39.84
2018-05-11T21:03:19.221Z,39.92
2018-05-11T21:05:46.832Z,39.94
2018-05-11T21:08:14.410Z,39.98
2018-05-11T21:10:41.961Z,40.00
2018-05-11T21:13:09.553Z,40.10
2018-05-11T21:15:37.254Z,40.04
2018-05-11T21:18:04.864Z,40.04
2018-05-11T21:20:32.412Z,40.05
2018-05-11T21:22:59.980Z,40.20
2018-05-11T21:25:27.554Z,40.19
2018-05-11T21:27:55.112Z,40.19
2018-05-11T21:30:22.639Z,40.31
2018-05-11T21:32:50.267Z,40.35
2018-05-11T21:35:17.853Z,40.45
2018-05-11T21:37:45.464Z,40.56
2018-05-11T21:40:12.999Z,40.68
2018-05-11T21:42:40.540Z,40.65
2018-05-11T21:45:08.117Z,40.66
2018-05-11T21:47:35.733Z,40.64
2018-05-11T21:50:03.320Z,40.69
2018-05-11T21:52:32.023Z,40.96
2018-05-11T21:54:59.585Z,40.98
2018-05-11T21:57:27.124Z,40.98
2018-05-11T21:59:54.686Z,40.99
2018-05-11T22:02:22.247Z,41.04
2018-05-11T22:04:49.859Z,41.06
2018-05-11T22:07:17.397Z,41.09
2018-05-11T22:09:44.947Z,41.25
2018-05-11T22:12:12.536Z,41.37
2018-05-11T22:14:40.085Z,41.46
2018-05-11T22:17:07.636Z,41.47
2018-05-11T22:19:35.177Z,41.66
2018-05-11T22:22:02.749Z,41.67
2018-05-11T22:24:30.323Z,41.78
2018-05-11T22:26:57.884Z,41.80
2018-05-11T22:29:25.432Z,41.95
2018-05-11T22:31:53.065Z,42.09
2018-05-11T22:34:20.597Z,42.12
2018-05-11T22:36:48.193Z,42.32
2018-05-11T22:39:15.744Z,41.96
2018-05-11T22:41:43.309Z,42.37
2018-05-11T22:44:10.834Z,42.52
2018-05-11T22:46:38.386Z,42.51
2018-05-11T22:49:05.947Z,42.50
2018-05-11T22:51:33.560Z,42.69
2018-05-11T22:54:01.110Z,42.65
2018-05-11T22:56:28.635Z,42.47
2018-05-11T22:58:56.992Z,42.36
2018-05-11T23:01:24.574Z,42.37
2018-05-11T23:03:52.126Z,42.56
2018-05-11T23:06:19.660Z,42.32
2018-05-11T23:08:47.249Z,42.34
2018-05-11T23:11:14.842Z,42.45
2018-05-11T23:13:42.459Z,42.59
2018-05-11T23:16:10.036Z,42.57
2018-05-11T23:18:37.594Z,42.76
2018-05-11T23:21:05.174Z,42.64
2018-05-11T23:23:32.770Z,42.63
2018-05-11T23:26:00.240Z,42.70
2018-05-11T23:28:27.794Z,42.58
2018-05-11T23:30:55.325Z,42.67
2018-05-11T23:33:24.406Z,42.61
2018-05-11T23:35:52.022Z,42.69
2018-05-11T23:38:19.581Z,42.65
2018-05-11T23:40:47.165Z,42.51
2018-05-11T23:43:14.724Z,42.51
2018-05-11T23:45:42.279Z,42.46
2018-05-11T23:48:09.850Z,42.51
2018-05-11T23:50:37.387Z,42.69
2018-05-11T23:53:04.928Z,42.65
2018-05-11T23:55:32.469Z,42.58
2018-05-11T23:58:00.044Z,42.72
